メインページ
METAR-TAF:

METAR-TAF

空港 :

チンギスハーン国際空港

ウランバートル, モンゴル国

緯度: 47-55N, 経度: 106-52E, 海抜: 1306m

現時点の気象観測

当レポートは20分前の23:30(UTC)に作成
北東の風 6kt
気温 19°C
湿度 68%
気圧 1003 hPa
視程10km以上
高度3000ftの雲はほとんどない, 積乱雲.
高度3300ftの千切れ雲あり

METAR: ZMUB 162330Z 05003MPS 9999 FEW030CB BKN033 19/13 Q1003 NOSIG RMK QFE646.4 69 MOP

時間: 08:50 (23:50 UTC)

予報

当レポートは1時間10分前の22:40(UTC)に作成
予報は17日の 00時(UTC)から 18日の 06時(UTC)まで有効
変向風 4kt
視程10km以上
高度3000ftの雲はほとんどない, 積乱雲.
高度3300ftの雲は散在している
17日の 00時(UTC)から 17日の 18時(UTC)まで一時的に
変向風 16kt
高度3000ftの雲は散在している, 積乱雲.
高度3300ftの雲は散在している
激しい雷雨, にわか雨
確率 40% :
17日の 18時(UTC)から 18日の 06時(UTC)まで一時的に
変向風 16kt
高度3000ftの雲は散在している, 積乱雲.
高度3300ftの雲は散在している
激しい雷雨, にわか雨

TAF: ZMUB 162240Z 1700/1806 VRB02MPS 9999 FEW030CB SCT033 TX26/1707Z TN14/1721Z TEMPO 1700/1718 VRB08MPS TS SHRA SCT030CB SCT033 PROB40 TEMPO 1718/1806 VRB08MPS TS SHRA SCT030CB SCT033

4,000以上の空港の気象観測と天気予報(METAR報とTAF報)

利用可能な観測所は地図上に黄色い丸と赤い丸で示す。

丸の上にカーソルを重ねると観測所名を参照できる。

次にクリックすると気象観測と天気予報を参照できる。

マップの切り替え:黒色「×」印の緑ボタンをクリックして拡大、「-」印の緑ボタンをクリックして縮小、緑色の三角印をクリックして隣りの地図に切り替え


METAR-TAF: